sensor_id;sensor_type;location;lat;lon;timestamp;P1;durP1;ratioP1;P2;durP2;ratioP2
55288;SDS011;41154;45.394;5.734;2022-09-01T00:01:34;4.60;;;3.33;;
55288;SDS011;41154;45.394;5.734;2022-09-01T00:04:03;5.55;;;3.58;;
55288;SDS011;41154;45.394;5.734;2022-09-01T00:06:31;5.35;;;3.40;;
55288;SDS011;41154;45.394;5.734;2022-09-01T00:08:58;7.47;;;4.05;;
55288;SDS011;41154;45.394;5.734;2022-09-01T00:11:27;7.22;;;3.03;;
55288;SDS011;41154;45.394;5.734;2022-09-01T00:13:55;3.28;;;2.90;;
55288;SDS011;41154;45.394;5.734;2022-09-01T00:16:22;6.10;;;3.28;;
55288;SDS011;41154;45.394;5.734;2022-09-01T00:18:50;3.80;;;2.92;;
55288;SDS011;41154;45.394;5.734;2022-09-01T00:21:19;3.92;;;2.90;;
55288;SDS011;41154;45.394;5.734;2022-09-01T00:23:48;5.30;;;3.40;;
55288;SDS011;41154;45.394;5.734;2022-09-01T00:26:13;4.10;;;3.35;;
55288;SDS011;41154;45.394;5.734;2022-09-01T00:28:39;6.80;;;3.22;;
55288;SDS011;41154;45.394;5.734;2022-09-01T00:31:06;7.03;;;3.50;;
55288;SDS011;41154;45.394;5.734;2022-09-01T00:33:33;5.95;;;3.40;;
55288;SDS011;41154;45.394;5.734;2022-09-01T00:36:00;8.15;;;3.55;;
55288;SDS011;41154;45.394;5.734;2022-09-01T00:38:26;4.85;;;3.47;;
55288;SDS011;41154;45.394;5.734;2022-09-01T00:40:52;5.38;;;3.30;;
55288;SDS011;41154;45.394;5.734;2022-09-01T00:43:23;3.50;;;2.92;;
55288;SDS011;41154;45.394;5.734;2022-09-01T00:46:06;4.75;;;2.92;;
55288;SDS011;41154;45.394;5.734;2022-09-01T00:48:34;4.05;;;2.80;;
55288;SDS011;41154;45.394;5.734;2022-09-01T00:51:02;2.90;;;2.67;;
55288;SDS011;41154;45.394;5.734;2022-09-01T00:53:29;3.53;;;3.08;;
55288;SDS011;41154;45.394;5.734;2022-09-01T00:55:56;4.25;;;2.90;;
55288;SDS011;41154;45.394;5.734;2022-09-01T00:58:22;3.65;;;3.03;;
55288;SDS011;41154;45.394;5.734;2022-09-01T01:00:48;5.57;;;3.33;;
55288;SDS011;41154;45.394;5.734;2022-09-01T01:03:16;5.70;;;3.35;;
55288;SDS011;41154;45.394;5.734;2022-09-01T01:05:48;5.43;;;3.60;;
55288;SDS011;41154;45.394;5.734;2022-09-01T01:08:22;3.55;;;2.95;;
55288;SDS011;41154;45.394;5.734;2022-09-01T01:11:19;5.70;;;3.55;;
55288;SDS011;41154;45.394;5.734;2022-09-01T01:13:48;8.38;;;4.10;;
55288;SDS011;41154;45.394;5.734;2022-09-01T01:16:19;8.73;;;4.68;;
55288;SDS011;41154;45.394;5.734;2022-09-01T01:18:46;5.70;;;3.08;;
55288;SDS011;41154;45.394;5.734;2022-09-01T01:21:34;7.85;;;3.15;;
55288;SDS011;41154;45.394;5.734;2022-09-01T01:24:30;4.90;;;3.03;;
55288;SDS011;41154;45.394;5.734;2022-09-01T01:26:59;3.88;;;2.80;;
55288;SDS011;41154;45.394;5.734;2022-09-01T01:29:27;3.55;;;3.10;;
55288;SDS011;41154;45.394;5.734;2022-09-01T01:31:57;4.75;;;3.17;;
55288;SDS011;41154;45.394;5.734;2022-09-01T01:34:22;7.05;;;3.72;;
55288;SDS011;41154;45.394;5.734;2022-09-01T01:36:49;7.70;;;3.75;;
55288;SDS011;41154;45.394;5.734;2022-09-01T01:39:16;4.97;;;3.10;;
55288;SDS011;41154;45.394;5.734;2022-09-01T01:41:47;3.92;;;3.05;;
55288;SDS011;41154;45.394;5.734;2022-09-01T01:44:17;5.15;;;3.40;;
55288;SDS011;41154;45.394;5.734;2022-09-01T01:46:48;9.02;;;4.25;;
55288;SDS011;41154;45.394;5.734;2022-09-01T01:49:16;10.88;;;5.90;;
55288;SDS011;41154;45.394;5.734;2022-09-01T01:51:47;6.97;;;4.25;;
55288;SDS011;41154;45.394;5.734;2022-09-01T01:54:15;9.82;;;4.53;;
55288;SDS011;41154;45.394;5.734;2022-09-01T01:56:44;6.57;;;3.60;;
55288;SDS011;41154;45.394;5.734;2022-09-01T01:59:10;7.43;;;4.70;;
55288;SDS011;41154;45.394;5.734;2022-09-01T02:01:40;15.48;;;5.95;;
55288;SDS011;41154;45.394;5.734;2022-09-01T02:04:07;12.25;;;6.68;;
55288;SDS011;41154;45.394;5.734;2022-09-01T02:06:36;17.67;;;7.18;;
55288;SDS011;41154;45.394;5.734;2022-09-01T02:09:07;16.38;;;6.93;;
55288;SDS011;41154;45.394;5.734;2022-09-01T02:11:33;19.92;;;8.00;;
55288;SDS011;41154;45.394;5.734;2022-09-01T02:14:04;14.43;;;7.00;;
55288;SDS011;41154;45.394;5.734;2022-09-01T02:16:32;9.18;;;5.07;;
55288;SDS011;41154;45.394;5.734;2022-09-01T02:19:01;11.77;;;5.30;;
55288;SDS011;41154;45.394;5.734;2022-09-01T02:21:29;9.43;;;5.68;;
55288;SDS011;41154;45.394;5.734;2022-09-01T02:24:01;9.85;;;4.22;;
55288;SDS011;41154;45.394;5.734;2022-09-01T02:28:59;5.28;;;3.40;;
55288;SDS011;41154;45.394;5.734;2022-09-01T02:31:28;7.00;;;3.35;;
55288;SDS011;41154;45.394;5.734;2022-09-01T02:33:57;4.60;;;3.38;;
55288;SDS011;41154;45.394;5.734;2022-09-01T02:36:23;7.40;;;3.15;;
55288;SDS011;41154;45.394;5.734;2022-09-01T02:38:50;5.65;;;3.30;;
55288;SDS011;41154;45.394;5.734;2022-09-01T02:41:17;6.15;;;3.50;;
55288;SDS011;41154;45.394;5.734;2022-09-01T02:43:45;6.63;;;3.95;;
55288;SDS011;41154;45.394;5.734;2022-09-01T02:46:11;4.57;;;3.40;;
55288;SDS011;41154;45.394;5.734;2022-09-01T02:48:40;5.90;;;3.58;;
55288;SDS011;41154;45.394;5.734;2022-09-01T02:51:11;4.22;;;3.15;;
55288;SDS011;41154;45.394;5.734;2022-09-01T02:53:40;6.43;;;3.70;;
55288;SDS011;41154;45.394;5.734;2022-09-01T02:56:08;5.13;;;4.05;;
55288;SDS011;41154;45.394;5.734;2022-09-01T02:58:44;5.20;;;3.28;;
55288;SDS011;41154;45.394;5.734;2022-09-01T03:01:20;6.28;;;3.70;;
55288;SDS011;41154;45.394;5.734;2022-09-01T03:03:51;4.65;;;3.60;;
55288;SDS011;41154;45.394;5.734;2022-09-01T03:06:20;5.38;;;3.45;;
55288;SDS011;41154;45.394;5.734;2022-09-01T03:08:49;5.65;;;3.53;;
55288;SDS011;41154;45.394;5.734;2022-09-01T03:11:16;3.97;;;2.97;;
55288;SDS011;41154;45.394;5.734;2022-09-01T03:13:43;4.45;;;3.63;;
55288;SDS011;41154;45.394;5.734;2022-09-01T03:16:11;5.18;;;3.45;;
55288;SDS011;41154;45.394;5.734;2022-09-01T03:18:37;4.45;;;3.20;;
55288;SDS011;41154;45.394;5.734;2022-09-01T03:21:04;4.65;;;3.42;;
55288;SDS011;41154;45.394;5.734;2022-09-01T03:23:32;6.38;;;3.70;;
55288;SDS011;41154;45.394;5.734;2022-09-01T03:25:59;7.82;;;3.97;;
55288;SDS011;41154;45.394;5.734;2022-09-01T03:28:26;9.68;;;4.22;;
55288;SDS011;41154;45.394;5.734;2022-09-01T03:30:53;4.53;;;3.42;;
55288;SDS011;41154;45.394;5.734;2022-09-01T03:33:20;6.88;;;4.18;;
55288;SDS011;41154;45.394;5.734;2022-09-01T03:35:48;6.65;;;3.95;;
55288;SDS011;41154;45.394;5.734;2022-09-01T03:38:14;7.15;;;4.60;;
55288;SDS011;41154;45.394;5.734;2022-09-01T03:40:51;6.57;;;4.25;;
55288;SDS011;41154;45.394;5.734;2022-09-01T03:43:24;5.95;;;4.07;;
55288;SDS011;41154;45.394;5.734;2022-09-01T03:45:53;10.38;;;4.63;;
55288;SDS011;41154;45.394;5.734;2022-09-01T03:48:21;6.13;;;4.40;;
55288;SDS011;41154;45.394;5.734;2022-09-01T03:50:52;12.70;;;4.70;;
55288;SDS011;41154;45.394;5.734;2022-09-01T03:53:19;5.90;;;4.50;;
55288;SDS011;41154;45.394;5.734;2022-09-01T03:55:47;10.80;;;4.80;;
55288;SDS011;41154;45.394;5.734;2022-09-01T03:58:16;8.88;;;4.25;;
55288;SDS011;41154;45.394;5.734;2022-09-01T04:00:46;7.30;;;4.07;;
55288;SDS011;41154;45.394;5.734;2022-09-01T04:03:15;4.85;;;4.07;;
55288;SDS011;41154;45.394;5.734;2022-09-01T04:05:46;6.70;;;4.40;;
55288;SDS011;41154;45.394;5.734;2022-09-01T04:08:13;8.18;;;4.55;;
55288;SDS011;41154;45.394;5.734;2022-09-01T04:10:49;8.13;;;4.30;;
55288;SDS011;41154;45.394;5.734;2022-09-01T04:13:18;6.50;;;4.30;;
55288;SDS011;41154;45.394;5.734;2022-09-01T04:15:52;5.88;;;4.80;;
55288;SDS011;41154;45.394;5.734;2022-09-01T04:18:18;8.00;;;4.78;;
55288;SDS011;41154;45.394;5.734;2022-09-01T04:20:49;9.70;;;4.90;;
55288;SDS011;41154;45.394;5.734;2022-09-01T04:23:18;10.15;;;4.80;;
55288;SDS011;41154;45.394;5.734;2022-09-01T04:26:10;5.32;;;4.28;;
55288;SDS011;41154;45.394;5.734;2022-09-01T04:28:43;6.55;;;4.25;;
55288;SDS011;41154;45.394;5.734;2022-09-01T04:31:14;7.07;;;4.75;;
55288;SDS011;41154;45.394;5.734;2022-09-01T04:33:44;7.32;;;4.35;;
55288;SDS011;41154;45.394;5.734;2022-09-01T04:36:17;6.40;;;4.40;;
55288;SDS011;41154;45.394;5.734;2022-09-01T04:38:47;6.18;;;4.53;;
55288;SDS011;41154;45.394;5.734;2022-09-01T04:41:25;6.35;;;4.05;;
55288;SDS011;41154;45.394;5.734;2022-09-01T04:43:57;5.60;;;4.32;;
55288;SDS011;41154;45.394;5.734;2022-09-01T04:46:27;6.50;;;4.00;;
55288;SDS011;41154;45.394;5.734;2022-09-01T04:48:56;8.35;;;4.57;;
55288;SDS011;41154;45.394;5.734;2022-09-01T04:51:22;9.38;;;4.82;;
55288;SDS011;41154;45.394;5.734;2022-09-01T04:53:54;6.13;;;4.25;;
55288;SDS011;41154;45.394;5.734;2022-09-01T04:56:22;6.72;;;4.43;;
55288;SDS011;41154;45.394;5.734;2022-09-01T04:59:10;5.63;;;4.35;;
55288;SDS011;41154;45.394;5.734;2022-09-01T05:01:38;6.55;;;4.70;;
55288;SDS011;41154;45.394;5.734;2022-09-01T05:04:10;7.50;;;5.07;;
55288;SDS011;41154;45.394;5.734;2022-09-01T05:06:45;6.15;;;4.57;;
55288;SDS011;41154;45.394;5.734;2022-09-01T05:09:15;6.93;;;5.05;;
55288;SDS011;41154;45.394;5.734;2022-09-01T05:11:52;12.20;;;4.68;;
55288;SDS011;41154;45.394;5.734;2022-09-01T05:14:20;8.27;;;5.32;;
55288;SDS011;41154;45.394;5.734;2022-09-01T05:16:49;7.47;;;4.72;;
55288;SDS011;41154;45.394;5.734;2022-09-01T05:19:18;8.13;;;4.68;;
55288;SDS011;41154;45.394;5.734;2022-09-01T05:21:46;9.77;;;5.30;;
55288;SDS011;41154;45.394;5.734;2022-09-01T05:24:14;9.80;;;5.43;;
55288;SDS011;41154;45.394;5.734;2022-09-01T05:26:43;8.18;;;4.22;;
55288;SDS011;41154;45.394;5.734;2022-09-01T05:29:13;8.82;;;4.38;;
55288;SDS011;41154;45.394;5.734;2022-09-01T05:31:45;8.10;;;4.68;;
55288;SDS011;41154;45.394;5.734;2022-09-01T05:34:13;7.32;;;4.10;;
55288;SDS011;41154;45.394;5.734;2022-09-01T05:36:53;8.40;;;4.32;;
55288;SDS011;41154;45.394;5.734;2022-09-01T05:39:22;6.95;;;3.50;;
55288;SDS011;41154;45.394;5.734;2022-09-01T05:41:49;5.20;;;4.18;;
55288;SDS011;41154;45.394;5.734;2022-09-01T05:44:16;6.10;;;4.07;;
55288;SDS011;41154;45.394;5.734;2022-09-01T05:46:42;9.23;;;4.63;;
55288;SDS011;41154;45.394;5.734;2022-09-01T05:49:09;5.90;;;4.07;;
55288;SDS011;41154;45.394;5.734;2022-09-01T05:51:38;6.43;;;3.97;;
55288;SDS011;41154;45.394;5.734;2022-09-01T05:54:07;6.88;;;4.80;;
55288;SDS011;41154;45.394;5.734;2022-09-01T05:56:35;7.05;;;4.10;;
55288;SDS011;41154;45.394;5.734;2022-09-01T05:59:05;6.43;;;4.38;;
55288;SDS011;41154;45.394;5.734;2022-09-01T06:01:31;8.18;;;4.50;;
55288;SDS011;41154;45.394;5.734;2022-09-01T06:04:01;8.05;;;4.20;;
55288;SDS011;41154;45.394;5.734;2022-09-01T06:06:42;10.75;;;4.47;;
55288;SDS011;41154;45.394;5.734;2022-09-01T06:09:16;10.20;;;4.95;;
55288;SDS011;41154;45.394;5.734;2022-09-01T06:11:44;6.68;;;4.07;;
55288;SDS011;41154;45.394;5.734;2022-09-01T06:14:12;6.15;;;3.88;;
55288;SDS011;41154;45.394;5.734;2022-09-01T06:16:40;6.47;;;4.18;;
55288;SDS011;41154;45.394;5.734;2022-09-01T06:19:07;5.70;;;4.10;;
55288;SDS011;41154;45.394;5.734;2022-09-01T06:21:35;6.38;;;4.13;;
55288;SDS011;41154;45.394;5.734;2022-09-01T06:24:04;4.60;;;3.85;;
55288;SDS011;41154;45.394;5.734;2022-09-01T06:26:32;7.82;;;3.80;;
55288;SDS011;41154;45.394;5.734;2022-09-01T06:29:00;6.20;;;3.88;;
55288;SDS011;41154;45.394;5.734;2022-09-01T06:31:29;3.67;;;3.22;;
55288;SDS011;41154;45.394;5.734;2022-09-01T06:34:08;4.32;;;3.17;;
55288;SDS011;41154;45.394;5.734;2022-09-01T06:36:43;4.80;;;3.10;;
55288;SDS011;41154;45.394;5.734;2022-09-01T06:39:11;5.55;;;3.10;;
55288;SDS011;41154;45.394;5.734;2022-09-01T06:41:46;6.03;;;2.78;;
55288;SDS011;41154;45.394;5.734;2022-09-01T06:44:15;3.10;;;2.75;;
55288;SDS011;41154;45.394;5.734;2022-09-01T06:46:52;2.75;;;2.55;;
55288;SDS011;41154;45.394;5.734;2022-09-01T06:49:18;3.00;;;2.08;;
55288;SDS011;41154;45.394;5.734;2022-09-01T06:51:47;2.83;;;2.53;;
55288;SDS011;41154;45.394;5.734;2022-09-01T06:54:16;4.10;;;2.75;;
55288;SDS011;41154;45.394;5.734;2022-09-01T06:56:45;2.78;;;2.35;;
55288;SDS011;41154;45.394;5.734;2022-09-01T06:59:11;4.25;;;2.47;;
55288;SDS011;41154;45.394;5.734;2022-09-01T07:01:42;4.90;;;2.58;;
55288;SDS011;41154;45.394;5.734;2022-09-01T07:04:08;3.35;;;2.35;;
55288;SDS011;41154;45.394;5.734;2022-09-01T07:06:47;3.17;;;2.20;;
55288;SDS011;41154;45.394;5.734;2022-09-01T07:09:17;4.95;;;2.53;;
55288;SDS011;41154;45.394;5.734;2022-09-01T07:12:01;7.47;;;2.63;;
55288;SDS011;41154;45.394;5.734;2022-09-01T07:14:28;2.50;;;2.30;;
55288;SDS011;41154;45.394;5.734;2022-09-01T07:16:55;4.40;;;2.65;;
55288;SDS011;41154;45.394;5.734;2022-09-01T07:19:23;2.83;;;2.50;;
55288;SDS011;41154;45.394;5.734;2022-09-01T07:21:57;2.53;;;2.30;;
55288;SDS011;41154;45.394;5.734;2022-09-01T07:24:24;2.78;;;1.92;;
55288;SDS011;41154;45.394;5.734;2022-09-01T07:27:10;5.45;;;2.20;;
55288;SDS011;41154;45.394;5.734;2022-09-01T07:29:37;6.38;;;2.40;;
55288;SDS011;41154;45.394;5.734;2022-09-01T07:32:03;4.35;;;2.03;;
55288;SDS011;41154;45.394;5.734;2022-09-01T07:34:30;3.35;;;2.10;;
55288;SDS011;41154;45.394;5.734;2022-09-01T07:36:58;2.88;;;2.35;;
55288;SDS011;41154;45.394;5.734;2022-09-01T07:39:26;3.05;;;2.22;;
55288;SDS011;41154;45.394;5.734;2022-09-01T07:42:18;4.00;;;2.17;;
55288;SDS011;41154;45.394;5.734;2022-09-01T07:45:10;2.78;;;2.10;;
55288;SDS011;41154;45.394;5.734;2022-09-01T07:47:45;3.63;;;2.25;;
55288;SDS011;41154;45.394;5.734;2022-09-01T07:50:12;4.25;;;2.58;;
55288;SDS011;41154;45.394;5.734;2022-09-01T07:52:40;5.03;;;2.60;;
55288;SDS011;41154;45.394;5.734;2022-09-01T07:55:12;5.57;;;2.70;;
55288;SDS011;41154;45.394;5.734;2022-09-01T07:57:40;3.05;;;2.00;;
55288;SDS011;41154;45.394;5.734;2022-09-01T08:00:08;3.97;;;2.47;;
55288;SDS011;41154;45.394;5.734;2022-09-01T08:02:38;2.70;;;2.50;;
55288;SDS011;41154;45.394;5.734;2022-09-01T08:05:06;2.13;;;1.83;;
55288;SDS011;41154;45.394;5.734;2022-09-01T08:07:34;2.65;;;2.05;;
55288;SDS011;41154;45.394;5.734;2022-09-01T08:10:02;3.35;;;2.35;;
55288;SDS011;41154;45.394;5.734;2022-09-01T08:12:33;4.65;;;2.85;;
55288;SDS011;41154;45.394;5.734;2022-09-01T08:15:00;3.10;;;2.28;;
55288;SDS011;41154;45.394;5.734;2022-09-01T08:17:29;3.22;;;2.92;;
55288;SDS011;41154;45.394;5.734;2022-09-01T08:19:58;3.10;;;2.80;;
55288;SDS011;41154;45.394;5.734;2022-09-01T08:22:43;4.22;;;2.53;;
55288;SDS011;41154;45.394;5.734;2022-09-01T08:25:20;3.53;;;2.70;;
55288;SDS011;41154;45.394;5.734;2022-09-01T08:27:47;3.90;;;2.70;;
55288;SDS011;41154;45.394;5.734;2022-09-01T08:30:13;3.22;;;2.60;;
55288;SDS011;41154;45.394;5.734;2022-09-01T08:32:40;2.95;;;2.67;;
55288;SDS011;41154;45.394;5.734;2022-09-01T08:35:09;3.15;;;2.60;;
55288;SDS011;41154;45.394;5.734;2022-09-01T08:37:38;4.32;;;3.50;;
55288;SDS011;41154;45.394;5.734;2022-09-01T08:40:05;4.50;;;2.85;;
55288;SDS011;41154;45.394;5.734;2022-09-01T08:48:11;3.22;;;2.80;;
55288;SDS011;41154;45.394;5.734;2022-09-01T08:50:42;3.85;;;2.95;;
55288;SDS011;41154;45.394;5.734;2022-09-01T08:53:35;3.20;;;2.90;;
55288;SDS011;41154;45.394;5.734;2022-09-01T08:56:08;2.88;;;2.45;;
55288;SDS011;41154;45.394;5.734;2022-09-01T08:58:36;2.88;;;2.55;;
55288;SDS011;41154;45.394;5.734;2022-09-01T09:07:18;3.58;;;2.45;;
55288;SDS011;41154;45.394;5.734;2022-09-01T09:09:56;4.00;;;3.08;;
55288;SDS011;41154;45.394;5.734;2022-09-01T09:15:19;3.95;;;3.40;;
55288;SDS011;41154;45.394;5.734;2022-09-01T09:20:49;3.75;;;3.00;;
55288;SDS011;41154;45.394;5.734;2022-09-01T09:23:23;6.15;;;3.33;;
55288;SDS011;41154;45.394;5.734;2022-09-01T09:25:54;3.75;;;2.67;;
55288;SDS011;41154;45.394;5.734;2022-09-01T09:28:20;7.20;;;3.13;;
55288;SDS011;41154;45.394;5.734;2022-09-01T09:30:46;3.75;;;3.40;;
55288;SDS011;41154;45.394;5.734;2022-09-01T09:33:32;3.75;;;3.38;;
55288;SDS011;41154;45.394;5.734;2022-09-01T09:36:16;4.90;;;3.25;;
55288;SDS011;41154;45.394;5.734;2022-09-01T09:38:45;3.78;;;3.38;;
55288;SDS011;41154;45.394;5.734;2022-09-01T09:41:17;3.92;;;3.15;;
55288;SDS011;41154;45.394;5.734;2022-09-01T09:43:47;4.82;;;3.17;;
55288;SDS011;41154;45.394;5.734;2022-09-01T09:54:25;3.75;;;3.33;;
55288;SDS011;41154;45.394;5.734;2022-09-01T09:59:37;6.75;;;3.20;;
55288;SDS011;41154;45.394;5.734;2022-09-01T10:02:24;5.25;;;2.85;;
55288;SDS011;41154;45.394;5.734;2022-09-01T10:04:59;4.10;;;2.80;;
55288;SDS011;41154;45.394;5.734;2022-09-01T10:07:45;3.10;;;2.67;;
55288;SDS011;41154;45.394;5.734;2022-09-01T10:13:16;3.67;;;3.15;;
55288;SDS011;41154;45.394;5.734;2022-09-01T10:15:48;4.38;;;3.03;;
55288;SDS011;41154;45.394;5.734;2022-09-01T10:18:19;5.45;;;2.88;;
55288;SDS011;41154;45.394;5.734;2022-09-01T10:21:07;2.88;;;2.58;;
55288;SDS011;41154;45.394;5.734;2022-09-01T10:23:37;3.20;;;2.90;;
55288;SDS011;41154;45.394;5.734;2022-09-01T10:26:22;5.28;;;2.83;;
55288;SDS011;41154;45.394;5.734;2022-09-01T10:29:00;6.13;;;2.90;;
55288;SDS011;41154;45.394;5.734;2022-09-01T10:31:36;3.28;;;2.90;;
55288;SDS011;41154;45.394;5.734;2022-09-01T10:34:04;4.28;;;2.78;;
55288;SDS011;41154;45.394;5.734;2022-09-01T10:36:32;3.22;;;2.80;;
55288;SDS011;41154;45.394;5.734;2022-09-01T10:39:01;2.75;;;2.55;;
55288;SDS011;41154;45.394;5.734;2022-09-01T10:44:34;3.13;;;2.85;;
55288;SDS011;41154;45.394;5.734;2022-09-01T10:47:10;3.72;;;2.88;;
55288;SDS011;41154;45.394;5.734;2022-09-01T11:04:07;4.75;;;2.65;;
55288;SDS011;41154;45.394;5.734;2022-09-01T11:06:55;4.93;;;2.47;;
55288;SDS011;41154;45.394;5.734;2022-09-01T11:09:27;3.67;;;2.80;;
55288;SDS011;41154;45.394;5.734;2022-09-01T11:14:57;2.83;;;2.30;;
55288;SDS011;41154;45.394;5.734;2022-09-01T11:17:37;5.10;;;2.90;;
55288;SDS011;41154;45.394;5.734;2022-09-01T11:20:26;3.15;;;2.85;;
55288;SDS011;41154;45.394;5.734;2022-09-01T11:25:36;3.15;;;2.80;;
55288;SDS011;41154;45.394;5.734;2022-09-01T11:28:03;3.42;;;3.05;;
55288;SDS011;41154;45.394;5.734;2022-09-01T11:30:36;3.58;;;2.97;;
55288;SDS011;41154;45.394;5.734;2022-09-01T11:35:40;3.72;;;2.70;;
55288;SDS011;41154;45.394;5.734;2022-09-01T11:38:09;3.33;;;2.60;;
55288;SDS011;41154;45.394;5.734;2022-09-01T11:40:38;3.67;;;2.80;;
55288;SDS011;41154;45.394;5.734;2022-09-01T11:43:07;3.55;;;2.53;;
55288;SDS011;41154;45.394;5.734;2022-09-01T11:48:32;3.05;;;2.50;;
55288;SDS011;41154;45.394;5.734;2022-09-01T11:50:59;2.70;;;2.50;;
55288;SDS011;41154;45.394;5.734;2022-09-01T11:53:27;3.40;;;2.70;;
55288;SDS011;41154;45.394;5.734;2022-09-01T11:55:54;4.47;;;2.50;;
55288;SDS011;41154;45.394;5.734;2022-09-01T11:58:35;2.97;;;2.58;;
55288;SDS011;41154;45.394;5.734;2022-09-01T12:01:11;2.63;;;2.42;;
55288;SDS011;41154;45.394;5.734;2022-09-01T12:03:37;3.20;;;2.40;;
55288;SDS011;41154;45.394;5.734;2022-09-01T12:06:06;3.90;;;2.30;;
55288;SDS011;41154;45.394;5.734;2022-09-01T12:08:38;3.10;;;2.30;;
55288;SDS011;41154;45.394;5.734;2022-09-01T12:11:07;4.28;;;2.50;;
55288;SDS011;41154;45.394;5.734;2022-09-01T12:13:36;2.58;;;2.38;;
55288;SDS011;41154;45.394;5.734;2022-09-01T12:16:05;2.70;;;2.33;;
55288;SDS011;41154;45.394;5.734;2022-09-01T12:18:33;2.45;;;2.25;;
55288;SDS011;41154;45.394;5.734;2022-09-01T12:23:52;2.58;;;2.20;;
55288;SDS011;41154;45.394;5.734;2022-09-01T12:26:27;2.33;;;2.13;;
55288;SDS011;41154;45.394;5.734;2022-09-01T12:28:54;3.15;;;2.45;;
55288;SDS011;41154;45.394;5.734;2022-09-01T12:31:22;2.38;;;2.10;;
55288;SDS011;41154;45.394;5.734;2022-09-01T12:33:51;3.30;;;2.13;;
55288;SDS011;41154;45.394;5.734;2022-09-01T12:36:36;3.75;;;2.28;;
55288;SDS011;41154;45.394;5.734;2022-09-01T12:39:18;2.67;;;2.25;;
55288;SDS011;41154;45.394;5.734;2022-09-01T12:42:07;2.38;;;2.17;;
55288;SDS011;41154;45.394;5.734;2022-09-01T12:47:09;3.17;;;2.42;;
55288;SDS011;41154;45.394;5.734;2022-09-01T12:49:41;3.05;;;2.22;;
55288;SDS011;41154;45.394;5.734;2022-09-01T12:54:46;2.40;;;2.20;;
55288;SDS011;41154;45.394;5.734;2022-09-01T12:57:28;2.72;;;2.00;;
55288;SDS011;41154;45.394;5.734;2022-09-01T13:02:47;2.60;;;2.08;;
55288;SDS011;41154;45.394;5.734;2022-09-01T13:08:02;2.78;;;2.50;;
55288;SDS011;41154;45.394;5.734;2022-09-01T13:10:31;2.50;;;2.30;;
55288;SDS011;41154;45.394;5.734;2022-09-01T13:13:02;3.50;;;2.17;;
55288;SDS011;41154;45.394;5.734;2022-09-01T13:15:29;2.53;;;2.30;;
55288;SDS011;41154;45.394;5.734;2022-09-01T13:17:56;3.63;;;2.30;;
55288;SDS011;41154;45.394;5.734;2022-09-01T13:20:22;2.50;;;2.30;;
55288;SDS011;41154;45.394;5.734;2022-09-01T13:22:48;2.53;;;2.33;;
55288;SDS011;41154;45.394;5.734;2022-09-01T13:25:15;2.88;;;2.40;;
55288;SDS011;41154;45.394;5.734;2022-09-01T13:27:43;3.85;;;2.70;;
55288;SDS011;41154;45.394;5.734;2022-09-01T13:30:13;3.45;;;2.25;;
55288;SDS011;41154;45.394;5.734;2022-09-01T13:32:42;3.28;;;2.30;;
55288;SDS011;41154;45.394;5.734;2022-09-01T13:35:09;2.22;;;2.03;;
55288;SDS011;41154;45.394;5.734;2022-09-01T13:37:36;3.35;;;2.25;;
55288;SDS011;41154;45.394;5.734;2022-09-01T13:40:03;4.20;;;2.20;;
55288;SDS011;41154;45.394;5.734;2022-09-01T13:42:43;2.80;;;2.10;;
55288;SDS011;41154;45.394;5.734;2022-09-01T13:45:12;4.25;;;2.25;;
55288;SDS011;41154;45.394;5.734;2022-09-01T13:47:41;3.90;;;2.20;;
55288;SDS011;41154;45.394;5.734;2022-09-01T13:50:09;3.38;;;2.20;;
55288;SDS011;41154;45.394;5.734;2022-09-01T13:52:41;3.55;;;2.30;;
55288;SDS011;41154;45.394;5.734;2022-09-01T13:55:10;2.42;;;2.10;;
55288;SDS011;41154;45.394;5.734;2022-09-01T13:57:38;3.75;;;2.30;;
55288;SDS011;41154;45.394;5.734;2022-09-01T14:00:05;2.53;;;2.08;;
55288;SDS011;41154;45.394;5.734;2022-09-01T14:02:38;4.28;;;2.42;;
55288;SDS011;41154;45.394;5.734;2022-09-01T14:05:06;2.55;;;2.35;;
55288;SDS011;41154;45.394;5.734;2022-09-01T14:07:32;3.95;;;2.50;;
55288;SDS011;41154;45.394;5.734;2022-09-01T14:09:58;2.33;;;2.13;;
55288;SDS011;41154;45.394;5.734;2022-09-01T14:12:24;2.55;;;2.22;;
55288;SDS011;41154;45.394;5.734;2022-09-01T14:14:50;3.08;;;2.20;;
55288;SDS011;41154;45.394;5.734;2022-09-01T14:17:16;2.40;;;2.20;;
55288;SDS011;41154;45.394;5.734;2022-09-01T14:19:42;2.58;;;1.85;;
55288;SDS011;41154;45.394;5.734;2022-09-01T14:22:10;2.03;;;1.75;;
55288;SDS011;41154;45.394;5.734;2022-09-01T14:24:36;2.08;;;1.92;;
55288;SDS011;41154;45.394;5.734;2022-09-01T14:27:02;1.98;;;1.77;;
55288;SDS011;41154;45.394;5.734;2022-09-01T14:29:28;1.98;;;1.77;;
55288;SDS011;41154;45.394;5.734;2022-09-01T14:31:54;2.03;;;1.70;;
55288;SDS011;41154;45.394;5.734;2022-09-01T14:34:24;2.10;;;1.90;;
55288;SDS011;41154;45.394;5.734;2022-09-01T14:36:50;1.98;;;1.80;;
55288;SDS011;41154;45.394;5.734;2022-09-01T14:39:18;2.25;;;1.70;;
55288;SDS011;41154;45.394;5.734;2022-09-01T14:41:44;3.80;;;1.80;;
55288;SDS011;41154;45.394;5.734;2022-09-01T14:44:10;2.15;;;1.95;;
55288;SDS011;41154;45.394;5.734;2022-09-01T14:46:36;2.72;;;1.67;;
55288;SDS011;41154;45.394;5.734;2022-09-01T14:49:02;3.20;;;1.80;;
55288;SDS011;41154;45.394;5.734;2022-09-01T14:51:31;1.92;;;1.65;;
55288;SDS011;41154;45.394;5.734;2022-09-01T14:53:57;2.08;;;1.77;;
55288;SDS011;41154;45.394;5.734;2022-09-01T14:56:24;3.00;;;1.60;;
55288;SDS011;41154;45.394;5.734;2022-09-01T14:58:50;1.73;;;1.63;;
55288;SDS011;41154;45.394;5.734;2022-09-01T15:01:18;4.05;;;1.88;;
55288;SDS011;41154;45.394;5.734;2022-09-01T15:03:45;2.03;;;1.83;;
55288;SDS011;41154;45.394;5.734;2022-09-01T15:06:12;2.40;;;2.20;;
55288;SDS011;41154;45.394;5.734;2022-09-01T15:08:39;2.38;;;1.70;;
55288;SDS011;41154;45.394;5.734;2022-09-01T15:11:09;2.10;;;1.90;;
55288;SDS011;41154;45.394;5.734;2022-09-01T15:13:36;3.47;;;1.95;;
55288;SDS011;41154;45.394;5.734;2022-09-01T15:16:03;3.15;;;1.80;;
55288;SDS011;41154;45.394;5.734;2022-09-01T15:18:30;4.00;;;1.95;;
55288;SDS011;41154;45.394;5.734;2022-09-01T15:20:56;1.92;;;1.83;;
55288;SDS011;41154;45.394;5.734;2022-09-01T15:23:23;1.77;;;1.67;;
55288;SDS011;41154;45.394;5.734;2022-09-01T15:25:51;3.00;;;1.80;;
55288;SDS011;41154;45.394;5.734;2022-09-01T15:28:18;2.90;;;1.98;;
55288;SDS011;41154;45.394;5.734;2022-09-01T15:30:44;1.88;;;1.70;;
55288;SDS011;41154;45.394;5.734;2022-09-01T15:33:11;2.42;;;1.80;;
55288;SDS011;41154;45.394;5.734;2022-09-01T15:35:37;3.85;;;1.88;;
55288;SDS011;41154;45.394;5.734;2022-09-01T15:38:03;3.08;;;1.88;;
55288;SDS011;41154;45.394;5.734;2022-09-01T15:40:31;3.55;;;2.08;;
55288;SDS011;41154;45.394;5.734;2022-09-01T15:42:58;2.10;;;1.90;;
55288;SDS011;41154;45.394;5.734;2022-09-01T15:45:24;2.45;;;2.00;;
55288;SDS011;41154;45.394;5.734;2022-09-01T15:47:52;3.30;;;2.00;;
55288;SDS011;41154;45.394;5.734;2022-09-01T15:50:19;1.70;;;1.60;;
55288;SDS011;41154;45.394;5.734;2022-09-01T15:52:49;2.60;;;2.00;;
55288;SDS011;41154;45.394;5.734;2022-09-01T15:55:22;2.05;;;1.83;;
55288;SDS011;41154;45.394;5.734;2022-09-01T15:57:50;3.28;;;1.88;;
55288;SDS011;41154;45.394;5.734;2022-09-01T16:00:18;2.63;;;2.10;;
55288;SDS011;41154;45.394;5.734;2022-09-01T16:02:48;3.28;;;2.25;;
55288;SDS011;41154;45.394;5.734;2022-09-01T16:05:14;2.20;;;2.00;;
55288;SDS011;41154;45.394;5.734;2022-09-01T16:07:42;4.20;;;2.00;;
55288;SDS011;41154;45.394;5.734;2022-09-01T16:10:08;2.25;;;2.00;;
55288;SDS011;41154;45.394;5.734;2022-09-01T16:12:37;2.25;;;2.05;;
55288;SDS011;41154;45.394;5.734;2022-09-01T16:15:04;2.53;;;2.28;;
55288;SDS011;41154;45.394;5.734;2022-09-01T16:20:07;4.22;;;2.22;;
55288;SDS011;41154;45.394;5.734;2022-09-01T16:22:47;2.47;;;2.03;;
55288;SDS011;41154;45.394;5.734;2022-09-01T16:25:27;2.47;;;2.03;;